27TN weather

Memphis Police Department Heliport
Memphis, Tennessee, United States

Public forecast

Using degrees Fahrenheit for public forecast. Weather courtesy of forecast.io.

Closest aviation weather report (METAR) to Memphis Police Department Heliport

Closest report is Millington-Memphis Airport, 9.6 nm (17.8 km) NE. Retrieved 2020/08/04 04:50 UTC (37 minutes ago):

KNQA 040450Z 36003KT 10SM SCT037 SCT042 BKN065 21/21 A2995

Closest aviation forecast (TAF) to Memphis Police Department Heliport

Closest forecast is Memphis International Airport, 12.6 nm (23.3 km) S. Retrieved 2020-08-04 00:24 UTC (5 hours ago):

TAF KMEM 032321Z 0400/0506 01006KT P6SM FEW050 SCT100 FM041100 35004KT P6SM BKN015 FM041500 01006KT P6SM SCT015 BKN030 FM041900 35008KT P6SM BKN070 FM050000 36008KT P6SM SCT250